Sydney River, Canada
Current Conditions -  °F | °C
As of 7:00 PM on Tuesday 21 Oct 2014 (Local Time) from CYQY Reporting Station
Scattered Clouds Scattered Clouds  
Wind Chill: 39°   Ceiling: Unl
Heat Index: 43°   Visibility: 15mi
Dew Point: 34°   Wind: 7mph
Humidity: 70%   Direction: 240°WSW
Pressure: 30.23"   Gusts: NA
Location:  46.12°N, 60.22°W
Report Text: CYQY 212200Z 24006KT 15SM SCT220 06/01 A3023 RMK CC3 SLP239
Loading
Personal Weather Stations






























Interactive Weather Map
Tropical Storm Tracking
New forecast layout! Learn more

10-Day Weather Forecast

Advertisements
Track Severe Weather on mobile